x

Buoy B01 - Western Maine Shelf (44030) Wave Buoy

10:04am - Tue 19th Sep 2017 All times are EDT. -4 hours from GMT.

  • Sig Wave height 3.0ft
  • Peak Period 4s
  • Wind
    16mph, 18mph gusts
  • Sea Temp 60°f
  • Air Temp 61°f
  • Sea Pressure 1021.3mb
  • Buoy B01 - Western Maine Shelf
  • Buoy B01 - Western Maine Shelf

More Historic Weather Station data

Upgrade to MSW Pro to gain access to the past 30 days of data for over 8000 Wavebouys and Weather Stations around the globe.

Join

Comparision Forecast

View Surf forecast
   
Tue 09/19 10:04am 3ft 4s 16 18 mph 1021.3mb 60f 61f
9:04am 3.5ft 4s 16 18 mph 1021.2mb 61f 61f
8:04am 2.5ft 4s 16 18 mph 1021.4mb 61f 60f
7:04am 2.5ft 4s 16 18 mph 1021.4mb 62f 61f
6:04am 2.5ft 5s 13 18 mph 1021.5mb 61f 61f
5:04am 2ft 4s 13 16 mph 1021.4mb 62f 61f
4:04am 2ft 4s 13 16 mph 1021.6mb 62f 61f
3:04am 4.5ft 11s 13 16 mph 1021.7mb 62f 61f
2:04am  -   -  13 16 mph 1022mb 62f 62f
1:04am 4.5ft 11s 11 11 mph 1022.3mb 62f 62f
12:04am 3.5ft 11s 9 11 mph 1022.5mb 62f 62f
Mon 09/18 11:04pm 4ft 11s 9 11 mph 1022.5mb 63f 62f
10:04pm 1.6ft 3s 9 11 mph 1022.8mb 63f 62f
9:04pm  -   -  11 13 mph 1022.6mb 63f 62f
8:04pm  -   -  7 9 mph 1022.8mb 63f 63f
7:04pm 3.5ft 11s 9 9 mph 1022.5mb 63f 63f
6:04pm 3.5ft 11s 7 9 mph 1022.1mb 63f 62f
5:04pm 3.5ft 11s 7 7 mph 1022.5mb 62f 63f
4:04pm 3.5ft 8s 7 7 mph 1022.3mb 63f 63f
3:04pm 4ft 11s 7 9 mph 1022.5mb 63f 63f
2:04pm 3ft 11s 9 9 mph 1022.6mb 63f 63f
1:04pm 4.5ft 16s 9 11 mph 1022.3mb 63f 63f
12:04pm 4.5ft 16s 7 9 mph 1022.6mb 63f 63f
11:04am 3.5ft 16s 7 7 mph 1022.5mb 64f 63f
10:04am 3ft 11s 4 4 mph 1022.6mb 63f 63f
9:04am 3ft 11s  -  2 mph 1023.1mb 63f 63f
8:04am 2.5ft 11s 2 4 mph 1022.5mb 62f 63f
7:04am 3ft 11s 7 9 mph 1022mb 62f 63f
6:04am 3.5ft 11s 4 7 mph 1021.7mb 62f 62f
5:04am 3ft 11s 4 7 mph 1021.5mb 62f 62f
4:04am 3.5ft 11s 4 7 mph 1021.5mb 62f 62f
3:04am 3.5ft 11s 4 7 mph 1021.4mb 62f 62f
2:04am 3.5ft 11s 2 2 mph 1021.5mb 62f 62f
1:04am 3.5ft 11s 2 4 mph 1021.4mb 63f 62f
12:04am 3.5ft 11s 4 4 mph 1021.5mb 63f 62f
Sun 09/17 11:04pm 2.5ft 11s 4 4 mph 1021.7mb 63f 62f
10:04pm 3ft 11s 4 4 mph 1021.5mb 62f 62f
9:04pm 3.5ft 11s 9 11 mph 1021.5mb 62f 62f
8:04pm 3ft 11s 7 9 mph 1021.2mb 62f 62f
7:04pm 3ft 11s 9 11 mph 1020.6mb 63f 62f
6:04pm 2.5ft 11s 9 11 mph 1021mb 63f 62f
5:04pm 2.5ft 11s 11 13 mph 1021mb 63f 62f
4:04pm 3ft 11s 11 13 mph 1021.3mb 64f 63f
3:04pm 4ft 11s 9 11 mph 1021.2mb 64f 63f
2:04pm 4.5ft 11s 7 9 mph 1021.3mb 63f 63f
1:04pm 4ft 11s 2 4 mph 1021.7mb 63f 63f
11:04am 3ft 11s 4 4 mph 1022.3mb 63f 62f
10:04am 3ft 11s  -  2 mph 1022.3mb 63f 62f
9:04am 2.5ft 11s 2 4 mph 1022.2mb 63f 61f
8:04am 3.5ft 11s 4 7 mph 1022.1mb 63f 62f
7:04am 2.5ft 11s 9 9 mph 1021.7mb 63f 62f
6:04am 2.5ft 11s 7 7 mph 1021.6mb 62f 62f
5:04am 2.5ft 11s 7 9 mph 1021.2mb 62f 62f
4:04am 2.5ft 11s 7 9 mph 1021mb 62f 61f
3:04am 2.5ft 11s 7 7 mph 1021mb 62f 61f
2:04am 3.5ft 11s 4 4 mph 1021.1mb 63f 61f
1:04am 3ft 11s 4 7 mph 1021.4mb 63f 61f
12:04am 4ft 11s 9 9 mph 1021.3mb 63f 61f
Sat 09/16 11:04pm 3.5ft 11s 9 9 mph 1021.4mb 63f 61f
10:04pm 3.5ft 11s 9 11 mph 1020.9mb 64f 62f
9:04pm  -   -  9 11 mph 1020.9mb 64f 62f
8:04pm 2.5ft 11s 9 9 mph 1020.9mb 64f 62f
7:04pm 1.3ft 6s 9 11 mph 1020.6mb 63f 62f
6:04pm 2ft 11s 9 11 mph 1020.7mb 64f 63f
5:04pm 2.5ft 11s 9 9 mph 1020.6mb 63f 63f
4:04pm 2.5ft 11s 7 9 mph 1020.7mb 64f 64f
3:04pm 2.5ft 11s 4 7 mph 1020.9mb 61f 65f
2:04pm 2.5ft 11s 4 7 mph 1021.3mb 62f 64f
1:04pm 2.5ft 11s 7 7 mph 1021.7mb 62f 64f
12:04pm 2.5ft 11s  -  2 mph 1022.1mb 63f 65f
11:04am 3ft 11s 2 4 mph 1022.3mb 62f 63f
10:04am 2.5ft 11s  -  2 mph 1022.1mb 62f 63f
9:04am 2.5ft 11s 2 2 mph 1021.8mb 62f 62f
8:04am 2ft 11s 2 2 mph 1021.4mb 62f 62f
7:04am 1.6ft 11s 4 4 mph 1021.2mb 62f 62f
6:04am 0.7ft  -  7 7 mph 1021.1mb 62f 62f
5:04am 2.5ft 16s 4 7 mph 1020.6mb 62f 62f
4:04am 2.5ft 11s 4 7 mph 1020.4mb 62f 62f
3:04am 2.5ft 16s 2 4 mph 1020.5mb 62f 62f
2:04am 2.5ft 11s 4 7 mph 1020.6mb 62f 62f
1:04am 2ft 11s 4 7 mph 1020.6mb 62f 62f
12:04am 2.5ft 11s 9 9 mph 1020.2mb 62f 62f
Fri 09/15 11:04pm 0.7ft  -  9 9 mph 1020.3mb 62f 62f
10:04pm 2.5ft 11s 4 4 mph 1020mb 62f 63f
9:04pm 2ft 11s 4 7 mph 1019.8mb 62f 63f
8:04pm 2ft 11s 2 4 mph 1019.6mb 62f 62f
7:04pm 1.6ft 8s 4 4 mph 1019.3mb 62f 62f
6:04pm 2ft 11s 7 7 mph 1018.8mb 62f 62f
5:04pm 2ft 8s 7 7 mph 1018.8mb 62f 63f